Terminal Aerodrome Forecast
Issued by NWS

Current Version | Previous Version | Text Only | Print | Product List | Glossary On
Versions: 1 2 3 4 5 6 7 8 9 10 11 12 13 14 15 16 17 18 19 20 21
000
FTUS46 KLOX 031100
TAFSBP
TAF
KSBP 031138Z 0312/0412 VRB03KT P6SM OVC009
     FM031800 VRB03KT P6SM BKN012
     FM032000 22010KT P6SM SCT015
     FM040400 VRB03KT P6SM BKN015
     FM040700 VRB03KT P6SM OVC021=

USA.gov is the U.S. government's official web portal to all federal, state and local government web resources and services.